DLH09H LFBO-EDDM
Flight info
| Callsign | DLH09H |
|---|---|
| Flight time | 1h 25m |
| Altitude | 38000 |
| Route | MEN DCT NINUN DCT LATAM DCT ETREK DCT LTP DCT SOPLO DCT OMASI DCT KINNI DCT LAMUR DCT KORED/N0430F370 DCT NUNRI T103 BETOS BETOS1B |
| Aircraft | A320/M-SDE2E3FGIJ1LORWXYZ/HB1 |
Departure
| Time | 2026-05-07 20:47 |
|---|---|
| Airport | Toulouse-Blagnac Airport (LFBO) |
Arrival
| Time | 2026-05-07 22:12 |
|---|---|
| Airport | Munich Airport (EDDM) |
| Time | Latitude | Longitude | Altitude | Speed | Heading |
|---|---|---|---|---|---|
| 2026-05-07 20:03 | 43.63138 | 1.37011 | 494 ft | 0 kts | 65° |
| 2026-05-07 20:36 | 43.63134 | 1.36999 | 482 ft | 2 kts | 66° |
| 2026-05-07 20:36 | 43.63127 | 1.36978 | 483 ft | 2 kts | 65° |
| 2026-05-07 20:37 | 43.63120 | 1.36957 | 483 ft | 2 kts | 65° |
| 2026-05-07 20:37 | 43.63113 | 1.36936 | 486 ft | 2 kts | 65° |
| 2026-05-07 20:37 | 43.63107 | 1.36916 | 494 ft | 2 kts | 60° |
| 2026-05-07 20:37 | 43.63100 | 1.36895 | 481 ft | 2 kts | 110° |
| 2026-05-07 20:38 | 43.63105 | 1.36881 | 483 ft | 1 kts | 136° |
| 2026-05-07 20:40 | 43.63073 | 1.36931 | 485 ft | 9 kts | 130° |
| 2026-05-07 20:40 | 43.63043 | 1.36995 | 488 ft | 9 kts | 115° |
| 2026-05-07 20:41 | 43.62976 | 1.37000 | 489 ft | 12 kts | 228° |
| 2026-05-07 20:41 | 43.62912 | 1.36945 | 490 ft | 10 kts | 173° |
| 2026-05-07 20:41 | 43.62854 | 1.36992 | 489 ft | 11 kts | 142° |
| 2026-05-07 20:41 | 43.62771 | 1.37081 | 491 ft | 17 kts | 142° |
| 2026-05-07 20:42 | 43.62672 | 1.37184 | 491 ft | 19 kts | 144° |
| 2026-05-07 20:42 | 43.62567 | 1.37290 | 488 ft | 19 kts | 142° |
| 2026-05-07 20:42 | 43.62459 | 1.37404 | 491 ft | 20 kts | 143° |
| 2026-05-07 20:42 | 43.62345 | 1.37522 | 489 ft | 20 kts | 143° |
| 2026-05-07 20:43 | 43.62242 | 1.37628 | 489 ft | 19 kts | 143° |
| 2026-05-07 20:43 | 43.62139 | 1.37735 | 487 ft | 19 kts | 143° |
| 2026-05-07 20:43 | 43.62046 | 1.37831 | 489 ft | 17 kts | 143° |
| 2026-05-07 20:43 | 43.61948 | 1.37931 | 489 ft | 18 kts | 143° |
| 2026-05-07 20:44 | 43.61840 | 1.38040 | 485 ft | 19 kts | 143° |
| 2026-05-07 20:44 | 43.61745 | 1.38143 | 489 ft | 15 kts | 142° |
| 2026-05-07 20:44 | 43.61674 | 1.38173 | 494 ft | 10 kts | 194° |
| 2026-05-07 20:44 | 43.61636 | 1.38130 | 488 ft | 0 kts | 232° |
| 2026-05-07 20:45 | 43.61612 | 1.38086 | 486 ft | 7 kts | 233° |
| 2026-05-07 20:45 | 43.61589 | 1.38013 | 489 ft | 8 kts | 272° |
| 2026-05-07 20:46 | 43.61610 | 1.37975 | 490 ft | 0 kts | 323° |
| 2026-05-07 20:46 | 43.61625 | 1.37959 | 487 ft | 21 kts | 324° |
| 2026-05-07 20:46 | 43.61971 | 1.37601 | 483 ft | 98 kts | 323° |
| 2026-05-07 20:46 | 43.62679 | 1.36861 | 490 ft | 155 kts | 322° |
| 2026-05-07 20:47 | 43.63608 | 1.35893 | 941 ft | 169 kts | 323° |
| 2026-05-07 20:47 | 43.64531 | 1.34906 | 1743 ft | 168 kts | 322° |
| 2026-05-07 20:47 | 43.65479 | 1.33861 | 2226 ft | 184 kts | 322° |
| 2026-05-07 20:47 | 43.66554 | 1.32673 | 2565 ft | 206 kts | 322° |
| 2026-05-07 20:48 | 43.67743 | 1.31360 | 2959 ft | 231 kts | 321° |
| 2026-05-07 20:48 | 43.69156 | 1.30097 | 3420 ft | 255 kts | 342° |
| 2026-05-07 20:48 | 43.70950 | 1.30070 | 4088 ft | 267 kts | 20° |
| 2026-05-07 20:48 | 43.72465 | 1.31531 | 4974 ft | 270 kts | 52° |
| 2026-05-07 20:49 | 43.73437 | 1.33759 | 5929 ft | 272 kts | 65° |
| 2026-05-07 20:49 | 43.74209 | 1.36173 | 6849 ft | 276 kts | 67° |
| 2026-05-07 20:49 | 43.74990 | 1.38625 | 7735 ft | 281 kts | 65° |
| 2026-05-07 20:49 | 43.75855 | 1.41070 | 8603 ft | 286 kts | 62° |
| 2026-05-07 20:50 | 43.76811 | 1.43504 | 9497 ft | 290 kts | 60° |
| 2026-05-07 20:50 | 43.77842 | 1.45939 | 10253 ft | 300 kts | 58° |
| 2026-05-07 20:50 | 43.78978 | 1.48498 | 10581 ft | 323 kts | 57° |
| 2026-05-07 20:50 | 43.80202 | 1.51173 | 11175 ft | 334 kts | 57° |
| 2026-05-07 20:51 | 43.81451 | 1.53919 | 11938 ft | 340 kts | 60° |
| 2026-05-07 20:51 | 43.82409 | 1.56934 | 12718 ft | 345 kts | 72° |
| 2026-05-07 20:51 | 43.83111 | 1.60133 | 13507 ft | 349 kts | 73° |
| 2026-05-07 20:51 | 43.83812 | 1.63373 | 14222 ft | 353 kts | 73° |
| 2026-05-07 20:52 | 43.84520 | 1.66650 | 14755 ft | 358 kts | 73° |
| 2026-05-07 20:52 | 43.85236 | 1.69950 | 14914 ft | 358 kts | 73° |
| 2026-05-07 20:52 | 43.85954 | 1.73256 | 14963 ft | 358 kts | 73° |
| 2026-05-07 20:52 | 43.86670 | 1.76554 | 14962 ft | 358 kts | 73° |
| 2026-05-07 20:53 | 43.87393 | 1.79889 | 15413 ft | 362 kts | 73° |
| 2026-05-07 20:53 | 43.88125 | 1.83275 | 16179 ft | 364 kts | 73° |
| 2026-05-07 20:53 | 43.88853 | 1.86656 | 16879 ft | 367 kts | 73° |
| 2026-05-07 20:53 | 43.89583 | 1.90066 | 17572 ft | 371 kts | 74° |
| 2026-05-07 20:54 | 43.90320 | 1.93524 | 18230 ft | 375 kts | 74° |
| 2026-05-07 20:54 | 43.91063 | 1.97007 | 18808 ft | 379 kts | 74° |
| 2026-05-07 20:54 | 43.91931 | 2.00486 | 19357 ft | 384 kts | 66° |
| 2026-05-07 20:54 | 43.93228 | 2.03738 | 19910 ft | 388 kts | 55° |
| 2026-05-07 20:55 | 43.94919 | 2.06675 | 20452 ft | 392 kts | 49° |
| 2026-05-07 20:55 | 43.96704 | 2.09567 | 21003 ft | 396 kts | 49° |
| 2026-05-07 20:55 | 43.98508 | 2.12497 | 21536 ft | 401 kts | 49° |
| 2026-05-07 20:55 | 44.00325 | 2.15457 | 22056 ft | 405 kts | 49° |
| 2026-05-07 20:56 | 44.02155 | 2.18448 | 22573 ft | 409 kts | 50° |
| 2026-05-07 20:56 | 44.04005 | 2.21478 | 23080 ft | 413 kts | 50° |
| 2026-05-07 20:56 | 44.05870 | 2.24540 | 23590 ft | 417 kts | 50° |
| 2026-05-07 20:56 | 44.07775 | 2.27673 | 24012 ft | 421 kts | 50° |
| 2026-05-07 20:57 | 44.09675 | 2.30798 | 24426 ft | 424 kts | 50° |
| 2026-05-07 20:57 | 44.11586 | 2.33942 | 24830 ft | 428 kts | 50° |
| 2026-05-07 20:57 | 44.13520 | 2.37128 | 25238 ft | 431 kts | 50° |
| 2026-05-07 20:57 | 44.15464 | 2.40331 | 25649 ft | 435 kts | 50° |
| 2026-05-07 20:58 | 44.17419 | 2.43560 | 26058 ft | 438 kts | 50° |
| 2026-05-07 20:58 | 44.19386 | 2.46813 | 26451 ft | 441 kts | 50° |
| 2026-05-07 20:58 | 44.20728 | 2.49035 | 26711 ft | 444 kts | 50° |
| 2026-05-07 20:58 | 44.22693 | 2.52293 | 27096 ft | 447 kts | 50° |
| 2026-05-07 20:59 | 44.24730 | 2.55670 | 27479 ft | 450 kts | 50° |
| 2026-05-07 20:59 | 44.26751 | 2.59021 | 27864 ft | 453 kts | 50° |
| 2026-05-07 20:59 | 44.28783 | 2.62397 | 28247 ft | 456 kts | 50° |
| 2026-05-07 20:59 | 44.30830 | 2.65808 | 28604 ft | 460 kts | 50° |
| 2026-05-07 21:00 | 44.32890 | 2.69246 | 28971 ft | 463 kts | 50° |
| 2026-05-07 21:00 | 44.34960 | 2.72705 | 29332 ft | 466 kts | 50° |
| 2026-05-07 21:00 | 44.37047 | 2.76186 | 29701 ft | 469 kts | 50° |
| 2026-05-07 21:00 | 44.39150 | 2.79692 | 30061 ft | 472 kts | 50° |
| 2026-05-07 21:01 | 44.41263 | 2.83222 | 30375 ft | 474 kts | 50° |
| 2026-05-07 21:01 | 44.43382 | 2.86776 | 30701 ft | 476 kts | 50° |
| 2026-05-07 21:01 | 44.45504 | 2.90342 | 31026 ft | 477 kts | 50° |
| 2026-05-07 21:01 | 44.47632 | 2.93924 | 31344 ft | 479 kts | 50° |
| 2026-05-07 21:02 | 44.49766 | 2.97510 | 31669 ft | 480 kts | 50° |
| 2026-05-07 21:02 | 44.51898 | 3.01089 | 32125 ft | 478 kts | 50° |
| 2026-05-07 21:02 | 44.54019 | 3.04662 | 32588 ft | 476 kts | 51° |
| 2026-05-07 21:02 | 44.56126 | 3.08224 | 33038 ft | 474 kts | 51° |
| 2026-05-07 21:03 | 44.58222 | 3.11776 | 33488 ft | 472 kts | 51° |
| 2026-05-07 21:03 | 44.60288 | 3.15346 | 33917 ft | 470 kts | 54° |
| 2026-05-07 21:03 | 44.62043 | 3.19198 | 34299 ft | 468 kts | 62° |
| 2026-05-07 21:03 | 44.63633 | 3.23181 | 34628 ft | 467 kts | 62° |
| 2026-05-07 21:04 | 44.65250 | 3.27210 | 34926 ft | 467 kts | 62° |
| 2026-05-07 21:04 | 44.66825 | 3.31127 | 35204 ft | 467 kts | 61° |
| 2026-05-07 21:04 | 44.68439 | 3.35153 | 35491 ft | 467 kts | 61° |
| 2026-05-07 21:04 | 44.70034 | 3.39135 | 35762 ft | 467 kts | 61° |
| 2026-05-07 21:05 | 44.71608 | 3.43066 | 36034 ft | 467 kts | 61° |
| 2026-05-07 21:05 | 44.73219 | 3.47101 | 36315 ft | 467 kts | 61° |
| 2026-05-07 21:05 | 44.74806 | 3.51086 | 36574 ft | 467 kts | 61° |
| 2026-05-07 21:05 | 44.76390 | 3.55075 | 36833 ft | 467 kts | 61° |
| 2026-05-07 21:06 | 44.77970 | 3.59062 | 37091 ft | 467 kts | 61° |
| 2026-05-07 21:06 | 44.79550 | 3.63054 | 37339 ft | 466 kts | 61° |
| 2026-05-07 21:06 | 44.81131 | 3.67047 | 37582 ft | 466 kts | 61° |
| 2026-05-07 21:06 | 44.82707 | 3.71031 | 37842 ft | 466 kts | 60° |
| 2026-05-07 21:07 | 44.84281 | 3.75020 | 37998 ft | 466 kts | 60° |
| 2026-05-07 21:07 | 44.87425 | 3.82998 | 38018 ft | 465 kts | 60° |
| 2026-05-07 21:08 | 44.90581 | 3.91029 | 38014 ft | 465 kts | 61° |
| 2026-05-07 21:08 | 44.93704 | 3.99006 | 38015 ft | 465 kts | 61° |
| 2026-05-07 21:09 | 44.96825 | 4.06998 | 38016 ft | 465 kts | 61° |
| 2026-05-07 21:09 | 44.99941 | 4.14995 | 38019 ft | 465 kts | 61° |
| 2026-05-07 21:10 | 45.03050 | 4.23007 | 38018 ft | 465 kts | 61° |
| 2026-05-07 21:10 | 45.06153 | 4.31019 | 38012 ft | 465 kts | 61° |
| 2026-05-07 21:11 | 45.09280 | 4.39113 | 38009 ft | 465 kts | 61° |
| 2026-05-07 21:11 | 45.13921 | 4.51173 | 38006 ft | 466 kts | 61° |
| 2026-05-07 21:12 | 45.17013 | 4.59249 | 38008 ft | 466 kts | 61° |
| 2026-05-07 21:12 | 45.20092 | 4.67320 | 38003 ft | 466 kts | 61° |
| 2026-05-07 21:13 | 45.23174 | 4.75415 | 38004 ft | 466 kts | 61° |
| 2026-05-07 21:13 | 45.26270 | 4.83565 | 38001 ft | 466 kts | 61° |
| 2026-05-07 21:14 | 45.29351 | 4.91691 | 38013 ft | 466 kts | 61° |
| 2026-05-07 21:14 | 45.32433 | 4.99837 | 38017 ft | 466 kts | 61° |
| 2026-05-07 21:15 | 45.35493 | 5.07953 | 38023 ft | 466 kts | 62° |
| 2026-05-07 21:15 | 45.38546 | 5.16094 | 38026 ft | 466 kts | 62° |
| 2026-05-07 21:16 | 45.41608 | 5.24288 | 38028 ft | 466 kts | 62° |
| 2026-05-07 21:16 | 45.44650 | 5.32453 | 38030 ft | 467 kts | 62° |
| 2026-05-07 21:17 | 45.47721 | 5.40597 | 38025 ft | 467 kts | 57° |
| 2026-05-07 21:17 | 45.51886 | 5.47700 | 38017 ft | 463 kts | 39° |
| 2026-05-07 21:18 | 45.56741 | 5.53849 | 38009 ft | 464 kts | 40° |
| 2026-05-07 21:18 | 45.61518 | 5.59950 | 38011 ft | 464 kts | 40° |
| 2026-05-07 21:19 | 45.66355 | 5.66153 | 38020 ft | 465 kts | 40° |
| 2026-05-07 21:19 | 45.71163 | 5.72339 | 38021 ft | 465 kts | 40° |
| 2026-05-07 21:20 | 45.75972 | 5.78531 | 38025 ft | 465 kts | 40° |
| 2026-05-07 21:20 | 45.80816 | 5.84753 | 38028 ft | 465 kts | 40° |
| 2026-05-07 21:21 | 45.84823 | 5.89905 | 38029 ft | 465 kts | 40° |
| 2026-05-07 21:21 | 45.90446 | 5.97169 | 38034 ft | 465 kts | 40° |
| 2026-05-07 21:22 | 45.94473 | 6.02376 | 38037 ft | 465 kts | 40° |
| 2026-05-07 21:22 | 45.99301 | 6.08647 | 38039 ft | 465 kts | 40° |
| 2026-05-07 21:23 | 46.04089 | 6.14884 | 38041 ft | 465 kts | 40° |
| 2026-05-07 21:23 | 46.08806 | 6.21270 | 38032 ft | 466 kts | 47° |
| 2026-05-07 21:24 | 46.12672 | 6.28839 | 38036 ft | 467 kts | 54° |
| 2026-05-07 21:24 | 46.16401 | 6.36509 | 38031 ft | 467 kts | 54° |
| 2026-05-07 21:25 | 46.20205 | 6.44322 | 38026 ft | 467 kts | 53° |
| 2026-05-07 21:25 | 46.23900 | 6.51910 | 38024 ft | 467 kts | 53° |
| 2026-05-07 21:26 | 46.27623 | 6.59607 | 38022 ft | 467 kts | 54° |
| 2026-05-07 21:26 | 46.31355 | 6.67354 | 38021 ft | 467 kts | 53° |
| 2026-05-07 21:27 | 46.35100 | 6.75129 | 38025 ft | 468 kts | 53° |
| 2026-05-07 21:27 | 46.38869 | 6.82957 | 38028 ft | 468 kts | 53° |
| 2026-05-07 21:28 | 46.42569 | 6.90686 | 38029 ft | 468 kts | 54° |
| 2026-05-07 21:28 | 46.46298 | 6.98491 | 38040 ft | 469 kts | 54° |
| 2026-05-07 21:29 | 46.49993 | 7.06270 | 38037 ft | 469 kts | 54° |
| 2026-05-07 21:29 | 46.53731 | 7.14154 | 38041 ft | 469 kts | 54° |
| 2026-05-07 21:30 | 46.57827 | 7.21432 | 38041 ft | 465 kts | 39° |
| 2026-05-07 21:30 | 46.63152 | 7.26586 | 38046 ft | 457 kts | 21° |
| 2026-05-07 21:31 | 46.68926 | 7.30448 | 38044 ft | 457 kts | 21° |
| 2026-05-07 21:31 | 46.74701 | 7.34366 | 38055 ft | 457 kts | 21° |
| 2026-05-07 21:32 | 46.80436 | 7.38365 | 38059 ft | 459 kts | 27° |
| 2026-05-07 21:32 | 46.83113 | 7.41063 | 38059 ft | 463 kts | 38° |
| 2026-05-07 21:32 | 46.85409 | 7.44360 | 38060 ft | 466 kts | 48° |
| 2026-05-07 21:33 | 46.88825 | 7.52402 | 38057 ft | 468 kts | 62° |
| 2026-05-07 21:33 | 46.91740 | 7.60919 | 38053 ft | 468 kts | 62° |
| 2026-05-07 21:34 | 46.94644 | 7.69442 | 38051 ft | 468 kts | 62° |
| 2026-05-07 21:34 | 46.97559 | 7.78037 | 38053 ft | 468 kts | 62° |
| 2026-05-07 21:35 | 47.00465 | 7.86649 | 38043 ft | 468 kts | 62° |
| 2026-05-07 21:35 | 47.03329 | 7.95159 | 38045 ft | 469 kts | 62° |
| 2026-05-07 21:36 | 47.06221 | 8.03754 | 38050 ft | 469 kts | 62° |
| 2026-05-07 21:36 | 47.09109 | 8.12387 | 38050 ft | 470 kts | 62° |
| 2026-05-07 21:37 | 47.11984 | 8.21003 | 38052 ft | 470 kts | 63° |
| 2026-05-07 21:37 | 47.14851 | 8.29642 | 38051 ft | 471 kts | 63° |
| 2026-05-07 21:38 | 47.17740 | 8.38349 | 38048 ft | 471 kts | 63° |
| 2026-05-07 21:38 | 47.20601 | 8.47021 | 38052 ft | 471 kts | 63° |
| 2026-05-07 21:39 | 47.23466 | 8.55774 | 38075 ft | 472 kts | 63° |
| 2026-05-07 21:39 | 47.26306 | 8.64470 | 38088 ft | 471 kts | 63° |
| 2026-05-07 21:40 | 47.29150 | 8.73168 | 38086 ft | 471 kts | 63° |
| 2026-05-07 21:40 | 47.31532 | 8.80457 | 38088 ft | 471 kts | 63° |
| 2026-05-07 21:41 | 47.34370 | 8.89172 | 38077 ft | 471 kts | 63° |
| 2026-05-07 21:41 | 47.37210 | 8.97884 | 38082 ft | 471 kts | 63° |
| 2026-05-07 21:42 | 47.40049 | 9.06679 | 38074 ft | 472 kts | 63° |
| 2026-05-07 21:42 | 47.42816 | 9.15315 | 38082 ft | 472 kts | 63° |
| 2026-05-07 21:43 | 47.45625 | 9.24108 | 38084 ft | 472 kts | 64° |
| 2026-05-07 21:43 | 47.48437 | 9.32909 | 38093 ft | 471 kts | 64° |
| 2026-05-07 21:44 | 47.51231 | 9.41675 | 38099 ft | 471 kts | 64° |
| 2026-05-07 21:44 | 47.54028 | 9.50517 | 37614 ft | 480 kts | 64° |
| 2026-05-07 21:45 | 47.55437 | 9.54981 | 37080 ft | 477 kts | 64° |
| 2026-05-07 21:45 | 47.56818 | 9.59429 | 36534 ft | 474 kts | 67° |
| 2026-05-07 21:45 | 47.57835 | 9.64051 | 35996 ft | 472 kts | 77° |
| 2026-05-07 21:45 | 47.58345 | 9.68875 | 35459 ft | 469 kts | 86° |
| 2026-05-07 21:46 | 47.58343 | 9.73710 | 34932 ft | 466 kts | 94° |
| 2026-05-07 21:46 | 47.58143 | 9.78488 | 34397 ft | 464 kts | 94° |
| 2026-05-07 21:46 | 47.57950 | 9.83259 | 33825 ft | 463 kts | 94° |
| 2026-05-07 21:46 | 47.57763 | 9.87991 | 33298 ft | 459 kts | 94° |
| 2026-05-07 21:47 | 47.57577 | 9.92690 | 32780 ft | 455 kts | 94° |
| 2026-05-07 21:47 | 47.57385 | 9.97407 | 32258 ft | 452 kts | 94° |
| 2026-05-07 21:47 | 47.57192 | 10.02035 | 31757 ft | 448 kts | 94° |
| 2026-05-07 21:47 | 47.56998 | 10.06623 | 31258 ft | 445 kts | 94° |
| 2026-05-07 21:48 | 47.56801 | 10.11184 | 30760 ft | 442 kts | 94° |
| 2026-05-07 21:48 | 47.56606 | 10.15698 | 30292 ft | 438 kts | 94° |
| 2026-05-07 21:48 | 47.56526 | 10.17373 | 30254 ft | 431 kts | 94° |
| 2026-05-07 21:49 | 47.56301 | 10.21853 | 29647 ft | 429 kts | 94° |
| 2026-05-07 21:49 | 47.56101 | 10.26217 | 29128 ft | 426 kts | 94° |
| 2026-05-07 21:49 | 47.55915 | 10.30569 | 28719 ft | 420 kts | 94° |
| 2026-05-07 21:49 | 47.55739 | 10.34850 | 28278 ft | 414 kts | 94° |
| 2026-05-07 21:50 | 47.55563 | 10.39089 | 27846 ft | 410 kts | 94° |
| 2026-05-07 21:50 | 47.55380 | 10.43269 | 27407 ft | 405 kts | 94° |
| 2026-05-07 21:50 | 47.55191 | 10.47406 | 26973 ft | 401 kts | 94° |
| 2026-05-07 21:50 | 47.55124 | 10.51506 | 26512 ft | 397 kts | 86° |
| 2026-05-07 21:51 | 47.55539 | 10.55524 | 26070 ft | 393 kts | 74° |
| 2026-05-07 21:51 | 47.56446 | 10.59312 | 25610 ft | 389 kts | 63° |
| 2026-05-07 21:51 | 47.57762 | 10.62779 | 25158 ft | 385 kts | 57° |
| 2026-05-07 21:51 | 47.59158 | 10.66209 | 24670 ft | 383 kts | 57° |
| 2026-05-07 21:52 | 47.60519 | 10.69593 | 24195 ft | 382 kts | 58° |
| 2026-05-07 21:52 | 47.61872 | 10.72975 | 23710 ft | 380 kts | 58° |
| 2026-05-07 21:52 | 47.63213 | 10.76329 | 23200 ft | 378 kts | 58° |
| 2026-05-07 21:52 | 47.64551 | 10.79674 | 22734 ft | 375 kts | 58° |
| 2026-05-07 21:53 | 47.65877 | 10.82992 | 22277 ft | 372 kts | 58° |
| 2026-05-07 21:53 | 47.67193 | 10.86283 | 21825 ft | 369 kts | 57° |
| 2026-05-07 21:53 | 47.68739 | 10.89347 | 21380 ft | 365 kts | 45° |
| 2026-05-07 21:53 | 47.70615 | 10.91843 | 20949 ft | 361 kts | 36° |
| 2026-05-07 21:54 | 47.72580 | 10.94145 | 20514 ft | 358 kts | 36° |
| 2026-05-07 21:54 | 47.74520 | 10.96441 | 20090 ft | 356 kts | 37° |
| 2026-05-07 21:54 | 47.76450 | 10.98741 | 19654 ft | 354 kts | 37° |
| 2026-05-07 21:54 | 47.78368 | 11.01033 | 19238 ft | 353 kts | 37° |
| 2026-05-07 21:55 | 47.80279 | 11.03314 | 18823 ft | 351 kts | 37° |
| 2026-05-07 21:55 | 47.82179 | 11.05582 | 18414 ft | 350 kts | 37° |
| 2026-05-07 21:55 | 47.84078 | 11.07843 | 17960 ft | 349 kts | 37° |
| 2026-05-07 21:55 | 47.85968 | 11.10096 | 17541 ft | 346 kts | 37° |
| 2026-05-07 21:56 | 47.87842 | 11.12332 | 17140 ft | 344 kts | 37° |
| 2026-05-07 21:56 | 47.89708 | 11.14553 | 16738 ft | 342 kts | 36° |
| 2026-05-07 21:56 | 47.91563 | 11.16758 | 16361 ft | 341 kts | 36° |
| 2026-05-07 21:56 | 47.93439 | 11.18989 | 15962 ft | 340 kts | 36° |
| 2026-05-07 21:57 | 47.95278 | 11.21184 | 15577 ft | 339 kts | 36° |
| 2026-05-07 21:57 | 47.97116 | 11.23376 | 15187 ft | 337 kts | 36° |
| 2026-05-07 21:57 | 47.98948 | 11.25560 | 14803 ft | 337 kts | 36° |
| 2026-05-07 21:57 | 48.00773 | 11.27742 | 14413 ft | 336 kts | 36° |
| 2026-05-07 21:58 | 48.02594 | 11.29918 | 14028 ft | 335 kts | 36° |
| 2026-05-07 21:58 | 48.04413 | 11.32100 | 13601 ft | 335 kts | 36° |
| 2026-05-07 21:58 | 48.06106 | 11.34468 | 13211 ft | 335 kts | 48° |
| 2026-05-07 21:58 | 48.07353 | 11.37391 | 12925 ft | 331 kts | 64° |
| 2026-05-07 21:59 | 48.08163 | 11.40567 | 12703 ft | 323 kts | 69° |
| 2026-05-07 21:59 | 48.08923 | 11.43702 | 12141 ft | 318 kts | 69° |
| 2026-05-07 21:59 | 48.09678 | 11.46811 | 11775 ft | 317 kts | 69° |
| 2026-05-07 21:59 | 48.10431 | 11.49915 | 11348 ft | 318 kts | 69° |
| 2026-05-07 22:00 | 48.11185 | 11.53033 | 11006 ft | 316 kts | 69° |
| 2026-05-07 22:00 | 48.11937 | 11.56157 | 10665 ft | 313 kts | 69° |
| 2026-05-07 22:00 | 48.12663 | 11.59184 | 10294 ft | 313 kts | 69° |
| 2026-05-07 22:00 | 48.13399 | 11.62239 | 9945 ft | 311 kts | 69° |
| 2026-05-07 22:01 | 48.14128 | 11.65267 | 9579 ft | 308 kts | 69° |
| 2026-05-07 22:01 | 48.14849 | 11.68267 | 9235 ft | 304 kts | 69° |
| 2026-05-07 22:01 | 48.15570 | 11.71263 | 8911 ft | 301 kts | 70° |
| 2026-05-07 22:01 | 48.16263 | 11.74161 | 8588 ft | 298 kts | 70° |
| 2026-05-07 22:02 | 48.16956 | 11.77068 | 8262 ft | 295 kts | 70° |
| 2026-05-07 22:02 | 48.17646 | 11.79966 | 7937 ft | 293 kts | 70° |
| 2026-05-07 22:02 | 48.18336 | 11.82855 | 7616 ft | 291 kts | 69° |
| 2026-05-07 22:02 | 48.19022 | 11.85698 | 7299 ft | 288 kts | 70° |
| 2026-05-07 22:03 | 48.19699 | 11.88509 | 6926 ft | 285 kts | 69° |
| 2026-05-07 22:03 | 48.20372 | 11.91295 | 6559 ft | 283 kts | 69° |
| 2026-05-07 22:03 | 48.20829 | 11.93188 | 6304 ft | 281 kts | 70° |
| 2026-05-07 22:03 | 48.21488 | 11.95907 | 5908 ft | 279 kts | 70° |
| 2026-05-07 22:04 | 48.22156 | 11.98625 | 5502 ft | 277 kts | 68° |
| 2026-05-07 22:04 | 48.23014 | 12.01187 | 5118 ft | 274 kts | 60° |
| 2026-05-07 22:04 | 48.23962 | 12.03668 | 4725 ft | 272 kts | 60° |
| 2026-05-07 22:04 | 48.24890 | 12.06064 | 4580 ft | 260 kts | 59° |
| 2026-05-07 22:05 | 48.25778 | 12.08354 | 4429 ft | 248 kts | 59° |
| 2026-05-07 22:05 | 48.26620 | 12.10530 | 4316 ft | 237 kts | 59° |
| 2026-05-07 22:05 | 48.27447 | 12.12665 | 4186 ft | 227 kts | 59° |
| 2026-05-07 22:05 | 48.28344 | 12.14492 | 4081 ft | 220 kts | 37° |
| 2026-05-07 22:06 | 48.29724 | 12.15354 | 3993 ft | 216 kts | 1° |
| 2026-05-07 22:06 | 48.31195 | 12.14924 | 4000 ft | 214 kts | 336° |
| 2026-05-07 22:06 | 48.32460 | 12.13777 | 4005 ft | 213 kts | 320° |
| 2026-05-07 22:06 | 48.33604 | 12.12359 | 4004 ft | 213 kts | 318° |
| 2026-05-07 22:07 | 48.34700 | 12.10946 | 3998 ft | 202 kts | 317° |
| 2026-05-07 22:07 | 48.35676 | 12.09500 | 4002 ft | 194 kts | 304° |
| 2026-05-07 22:07 | 48.36262 | 12.07702 | 4006 ft | 191 kts | 283° |
| 2026-05-07 22:07 | 48.36380 | 12.05733 | 4003 ft | 189 kts | 264° |
| 2026-05-07 22:08 | 48.36233 | 12.03766 | 4007 ft | 189 kts | 263° |
| 2026-05-07 22:08 | 48.36089 | 12.01841 | 4024 ft | 177 kts | 263° |
| 2026-05-07 22:08 | 48.35960 | 12.00112 | 3995 ft | 157 kts | 263° |
| 2026-05-07 22:08 | 48.35844 | 11.98555 | 3903 ft | 144 kts | 263° |
| 2026-05-07 22:09 | 48.35734 | 11.97092 | 3733 ft | 138 kts | 263° |
| 2026-05-07 22:09 | 48.35627 | 11.95664 | 3551 ft | 137 kts | 263° |
| 2026-05-07 22:09 | 48.35520 | 11.94245 | 3382 ft | 136 kts | 263° |
| 2026-05-07 22:09 | 48.35415 | 11.92834 | 3207 ft | 136 kts | 263° |
| 2026-05-07 22:10 | 48.35309 | 11.91424 | 3035 ft | 136 kts | 264° |
| 2026-05-07 22:10 | 48.35203 | 11.90011 | 2848 ft | 136 kts | 264° |
| 2026-05-07 22:10 | 48.35096 | 11.88597 | 2665 ft | 136 kts | 264° |
| 2026-05-07 22:10 | 48.34989 | 11.87183 | 2464 ft | 136 kts | 264° |
| 2026-05-07 22:11 | 48.34881 | 11.85767 | 2249 ft | 136 kts | 264° |
| 2026-05-07 22:11 | 48.34773 | 11.84332 | 2050 ft | 137 kts | 263° |
| 2026-05-07 22:11 | 48.34665 | 11.82911 | 1855 ft | 137 kts | 263° |
| 2026-05-07 22:11 | 48.34560 | 11.81496 | 1674 ft | 136 kts | 263° |
| 2026-05-07 22:12 | 48.34449 | 11.80082 | 1499 ft | 135 kts | 263° |
| 2026-05-07 22:12 | 48.34352 | 11.78793 | 1466 ft | 109 kts | 263° |
| 2026-05-07 22:12 | 48.34288 | 11.77920 | 1466 ft | 59 kts | 263° |
| 2026-05-07 22:12 | 48.34255 | 11.77562 | 1470 ft | 10 kts | 262° |
| 2026-05-07 22:13 | 48.34245 | 11.77421 | 1469 ft | 18 kts | 267° |
| 2026-05-07 22:13 | 48.34267 | 11.77226 | 1462 ft | 20 kts | 291° |
| 2026-05-07 22:13 | 48.34320 | 11.77048 | 1468 ft | 19 kts | 294° |
| 2026-05-07 22:13 | 48.34366 | 11.76889 | 1460 ft | 16 kts | 293° |
| 2026-05-07 22:14 | 48.34406 | 11.76751 | 1465 ft | 12 kts | 303° |
| 2026-05-07 22:14 | 48.34465 | 11.76784 | 1464 ft | 11 kts | 66° |
| 2026-05-07 22:14 | 48.34478 | 11.76885 | 1466 ft | 9 kts | 80° |
| 2026-05-07 22:14 | 48.34486 | 11.76983 | 1466 ft | 13 kts | 84° |
| 2026-05-07 22:15 | 48.34497 | 11.77139 | 1462 ft | 16 kts | 84° |
| 2026-05-07 22:15 | 48.34510 | 11.77316 | 1460 ft | 18 kts | 83° |
| 2026-05-07 22:15 | 48.34525 | 11.77508 | 1464 ft | 17 kts | 83° |
| 2026-05-07 22:15 | 48.34540 | 11.77693 | 1463 ft | 18 kts | 83° |
| 2026-05-07 22:16 | 48.34552 | 11.77852 | 1462 ft | 15 kts | 83° |
| 2026-05-07 22:16 | 48.34564 | 11.78015 | 1459 ft | 16 kts | 83° |
| 2026-05-07 22:16 | 48.34572 | 11.78110 | 1467 ft | 6 kts | 83° |
| 2026-05-07 22:16 | 48.34578 | 11.78194 | 1464 ft | 12 kts | 83° |
| 2026-05-07 22:17 | 48.34588 | 11.78322 | 1467 ft | 12 kts | 84° |
| 2026-05-07 22:17 | 48.34597 | 11.78444 | 1463 ft | 11 kts | 83° |
| 2026-05-07 22:17 | 48.34607 | 11.78568 | 1467 ft | 15 kts | 83° |
| 2026-05-07 22:17 | 48.34622 | 11.78747 | 1464 ft | 18 kts | 82° |
| 2026-05-07 22:18 | 48.34639 | 11.78948 | 1461 ft | 20 kts | 83° |
| 2026-05-07 22:18 | 48.34667 | 11.79364 | 1462 ft | 18 kts | 83° |
| 2026-05-07 22:18 | 48.34681 | 11.79533 | 1458 ft | 16 kts | 83° |
| 2026-05-07 22:19 | 48.34705 | 11.79696 | 1460 ft | 10 kts | 50° |
| 2026-05-07 22:19 | 48.34767 | 11.79709 | 1466 ft | 12 kts | 353° |
| 2026-05-07 22:19 | 48.34858 | 11.79692 | 1464 ft | 13 kts | 353° |
| 2026-05-07 22:19 | 48.34935 | 11.79680 | 1463 ft | 9 kts | 354° |
| 2026-05-07 22:20 | 48.34948 | 11.79678 | 1463 ft | 1 kts | 352° |
| 2026-05-07 22:20 | 48.34947 | 11.79678 | 1463 ft | 0 kts | 351° |
| 2026-05-07 22:20 | 48.34942 | 11.79679 | 1461 ft | 1 kts | 353° |
| 2026-05-07 22:20 | 48.35018 | 11.79666 | 1470 ft | 18 kts | 352° |
| 2026-05-07 22:21 | 48.35122 | 11.79647 | 1467 ft | 15 kts | 353° |
| 2026-05-07 22:21 | 48.35228 | 11.79630 | 1469 ft | 16 kts | 353° |
| 2026-05-07 22:21 | 48.35338 | 11.79611 | 1468 ft | 15 kts | 354° |
| 2026-05-07 22:21 | 48.35394 | 11.79624 | 1470 ft | 7 kts | 34° |
| 2026-05-07 22:22 | 48.35412 | 11.79690 | 1471 ft | 7 kts | 89° |
| 2026-05-07 22:22 | 48.35415 | 11.79742 | 1472 ft | 0 kts | 84° |